Time;durP1;ratioP1;P1;durP2;ratioP2;P2;SDS_P1;SDS_P2;PMS_P1;PMS_P2;Temp;Humidity;BMP_temperature;BMP_pressure;BME280_temperature;BME280_humidity;BME280_pressure;Samples;Min_cycle;Max_cycle;Signal;HPM_P1;HPM_P2
2023/04/06 00:02:32;;;;;;;12.60;8.35;;;;;;;0.34;100.00;101005.31;6283281;28;20060;-88
2023/04/06 00:05:34;;;;;;;10.35;8.40;;;;;;;0.26;100.00;101005.53;6283341;28;20044;-88
2023/04/06 00:08:36;;;;;;;12.77;8.80;;;;;;;0.28;100.00;101002.94;6281452;28;20044;-88
2023/04/06 00:11:38;;;;;;;12.05;8.85;;;;;;;0.23;100.00;101003.06;6284279;28;20118;-88
2023/04/06 00:14:40;;;;;;;13.80;9.10;;;;;;;0.22;100.00;101001.41;6281914;28;20043;-88
2023/04/06 00:17:44;;;;;;;11.88;9.43;;;;;;;0.20;100.00;100998.09;6283536;28;20415;-88
2023/04/06 00:20:46;;;;;;;11.02;8.63;;;;;;;0.16;100.00;100997.31;6273895;28;20550;-88
2023/04/06 00:23:48;;;;;;;13.13;9.07;;;;;;;0.12;100.00;100994.91;6283155;28;20055;-88
2023/04/06 00:26:50;;;;;;;13.60;8.82;;;;;;;0.09;100.00;100989.91;6281238;28;20409;-88
2023/04/06 00:29:57;;;;;;;14.32;9.70;;;;;;;-0.01;100.00;100985.06;6275715;28;20032;-88
2023/04/06 00:33:00;;;;;;;12.98;9.40;;;;;;;-0.02;100.00;100983.41;6281291;28;20044;-88
2023/04/06 00:36:02;;;;;;;12.27;9.05;;;;;;;-0.04;100.00;100981.78;6283362;28;20048;-88
2023/04/06 00:39:04;;;;;;;13.90;9.00;;;;;;;-0.04;100.00;100980.06;6264363;28;20056;-88
2023/04/06 00:42:14;;;;;;;12.93;9.30;;;;;;;-0.09;100.00;100976.81;6282770;28;20067;-88
2023/04/06 00:45:15;;;;;;;9.93;7.85;;;;;;;-0.06;100.00;100975.88;6282111;28;20048;-88
2023/04/06 00:48:18;;;;;;;10.75;8.73;;;;;;;-0.01;100.00;100974.88;6281281;28;20041;-88
2023/04/06 00:51:20;;;;;;;11.57;9.15;;;;;;;0.04;100.00;100976.47;6283300;28;20037;-88
2023/04/06 00:54:21;;;;;;;11.23;8.27;;;;;;;0.02;100.00;100968.88;6280327;28;20037;-88
2023/04/06 00:57:23;;;;;;;10.00;8.90;;;;;;;0.03;100.00;100967.19;6280354;28;20524;-88
2023/04/06 01:00:32;;;;;;;12.32;8.73;;;;;;;-0.01;100.00;100962.16;6265447;28;20064;-88
2023/04/06 01:03:35;;;;;;;11.02;9.00;;;;;;;-0.02;100.00;100957.94;6281251;28;20053;-88
2023/04/06 01:06:41;;;;;;;10.43;8.13;;;;;;;-0.03;100.00;100952.91;6279647;28;20066;-88
2023/04/06 01:09:43;;;;;;;11.85;8.32;;;;;;;-0.05;100.00;100954.66;6285804;28;20047;-88
2023/04/06 01:12:52;;;;;;;11.25;7.68;;;;;;;-0.04;100.00;100954.63;6261862;28;20570;-88
2023/04/06 01:16:12;;;;;;;10.60;6.97;;;;;;;-0.06;100.00;100953.81;6278190;28;20061;-88
2023/04/06 01:19:36;;;;;;;11.32;6.68;;;;;;;-0.07;100.00;100941.97;6285921;28;20101;-88
2023/04/06 01:22:40;;;;;;;9.65;6.60;;;;;;;-0.05;100.00;100947.88;6287334;28;20036;-88
2023/04/06 01:25:43;;;;;;;10.38;6.60;;;;;;;0.06;100.00;100947.56;6279747;28;20048;-88
2023/04/06 01:28:45;;;;;;;7.90;6.65;;;;;;;0.13;100.00;100945.69;6268479;28;20041;-88
2023/04/06 01:32:05;;;;;;;10.90;6.93;;;;;;;0.14;100.00;100945.63;6283806;28;20045;-88
2023/04/06 01:35:13;;;;;;;9.15;6.57;;;;;;;0.08;100.00;100947.53;6270401;28;20045;-88
2023/04/06 01:38:23;;;;;;;9.55;6.53;;;;;;;0.13;100.00;100946.50;6275235;28;20603;-88
2023/04/06 01:41:26;;;;;;;9.43;5.78;;;;;;;0.16;100.00;100945.59;6279811;28;20044;-88
2023/04/06 01:44:30;;;;;;;7.95;6.00;;;;;;;0.10;100.00;100941.50;6286228;28;20532;-88
2023/04/06 01:47:41;;;;;;;10.48;5.95;;;;;;;0.07;100.00;100941.56;6285612;28;20045;-88
2023/04/06 01:50:45;;;;;;;9.75;5.80;;;;;;;0.07;100.00;100939.03;6286133;28;20383;-88
2023/04/06 01:53:53;;;;;;;7.68;5.57;;;;;;;0.02;100.00;100937.50;6284603;28;20079;-88
2023/04/06 01:56:59;;;;;;;11.57;6.07;;;;;;;-0.02;100.00;100939.31;6284569;28;20041;-88
2023/04/06 02:00:06;;;;;;;7.60;5.57;;;;;;;-0.01;100.00;100938.44;6284248;28;20510;-88
2023/04/06 02:03:14;;;;;;;8.90;5.80;;;;;;;0.03;100.00;100936.66;6285875;28;20356;-87
2023/04/06 02:06:18;;;;;;;9.13;6.30;;;;;;;-0.02;100.00;100931.69;6285772;28;20501;-88
2023/04/06 02:09:20;;;;;;;7.90;5.40;;;;;;;-0.05;100.00;100931.75;6285096;28;20509;-88
2023/04/06 02:12:23;;;;;;;8.05;6.07;;;;;;;-0.03;100.00;100930.00;6275193;28;20521;-88
2023/04/06 02:15:27;;;;;;;9.93;5.82;;;;;;;-0.05;100.00;100926.66;6285457;28;20032;-87
2023/04/06 02:18:32;;;;;;;6.93;5.50;;;;;;;-0.04;100.00;100921.53;6266918;28;20055;-88
2023/04/06 02:21:34;;;;;;;7.45;5.65;;;;;;;-0.13;100.00;100923.50;6283817;28;20340;-88
2023/04/06 02:24:36;;;;;;;7.53;5.75;;;;;;;-0.15;100.00;100915.06;6284537;28;20506;-88
2023/04/06 02:27:38;;;;;;;9.02;5.93;;;;;;;-0.14;100.00;100917.59;6285890;28;20391;-88
2023/04/06 02:30:40;;;;;;;7.05;5.28;;;;;;;-0.19;100.00;100918.59;6276155;28;20037;-88
2023/04/06 02:33:41;;;;;;;8.57;5.63;;;;;;;-0.24;100.00;100911.91;6281677;28;20498;-88
2023/04/06 02:36:46;;;;;;;7.80;5.82;;;;;;;-0.22;100.00;100919.53;6284189;28;20092;-88
2023/04/06 02:39:48;;;;;;;8.13;5.18;;;;;;;-0.27;100.00;100911.19;6276241;28;20044;-88
2023/04/06 02:42:50;;;;;;;7.38;5.40;;;;;;;-0.26;100.00;100913.66;6285247;28;20035;-88
2023/04/06 02:46:00;;;;;;;8.07;5.60;;;;;;;-0.30;100.00;100908.69;6284557;28;20043;-88
2023/04/06 02:49:05;;;;;;;8.65;5.82;;;;;;;-0.28;100.00;100907.78;6279885;28;20127;-88
2023/04/06 02:52:08;;;;;;;8.07;5.43;;;;;;;-0.29;100.00;100902.75;6278420;28;20045;-87
2023/04/06 02:55:11;;;;;;;7.38;4.63;;;;;;;-0.29;100.00;100912.94;6279467;28;20052;-88
2023/04/06 02:58:13;;;;;;;8.70;4.68;;;;;;;-0.34;100.00;100902.88;6283678;28;20048;-88
2023/04/06 03:01:20;;;;;;;8.13;5.18;;;;;;;-0.36;100.00;100904.63;6281862;28;20071;-88
2023/04/06 03:04:28;;;;;;;6.43;4.90;;;;;;;-0.39;100.00;100898.81;6275399;28;20074;-88
2023/04/06 03:07:32;;;;;;;7.72;5.30;;;;;;;-0.38;100.00;100893.66;6282197;28;20418;-88
2023/04/06 03:10:34;;;;;;;7.35;4.97;;;;;;;-0.44;100.00;100896.38;6279972;28;20506;-88
2023/04/06 03:13:38;;;;;;;8.68;5.43;;;;;;;-0.45;100.00;100897.25;6278769;28;20037;-88
2023/04/06 03:16:40;;;;;;;8.13;5.40;;;;;;;-0.48;100.00;100893.06;6279202;28;20178;-88
2023/04/06 03:19:42;;;;;;;8.35;5.18;;;;;;;-0.45;100.00;100895.56;6283002;28;20341;-88
2023/04/06 03:22:46;;;;;;;6.65;5.30;;;;;;;-0.46;100.00;100896.41;6282829;28;20050;-88
2023/04/06 03:25:50;;;;;;;7.88;5.43;;;;;;;-0.52;100.00;100895.75;6282806;28;20074;-88
2023/04/06 03:28:54;;;;;;;7.30;5.07;;;;;;;-0.49;100.00;100895.69;6282212;28;20044;-88
2023/04/06 03:32:01;;;;;;;7.43;5.00;;;;;;;-0.52;100.00;100903.38;6283289;28;20132;-88
2023/04/06 03:35:10;;;;;;;8.85;5.43;;;;;;;-0.51;100.00;100897.44;6274268;28;20052;-88
2023/04/06 03:38:12;;;;;;;7.80;4.97;;;;;;;-0.50;100.00;100896.53;6259681;28;20049;-88
2023/04/06 03:41:14;;;;;;;7.25;5.53;;;;;;;-0.50;100.00;100896.53;6281701;28;20349;-88
2023/04/06 03:44:25;;;;;;;;;;;;;;;-0.52;100.00;100896.59;6277747;28;20064;-88
2023/04/06 03:47:27;;;;;;;8.45;5.30;;;;;;;-0.49;100.00;100904.13;6278110;28;20063;-88
2023/04/06 03:50:33;;;;;;;7.40;5.00;;;;;;;-0.50;100.00;100899.09;6283097;28;20494;-88
2023/04/06 03:53:37;;;;;;;8.95;5.07;;;;;;;-0.57;100.00;100902.66;6256382;28;20083;-88
2023/04/06 03:56:42;;;;;;;6.00;4.57;;;;;;;-0.51;100.00;100905.88;6273706;28;20509;-88
2023/04/06 03:59:44;;;;;;;8.82;5.80;;;;;;;-0.45;100.00;100899.78;6284851;28;20036;-88
2023/04/06 04:02:46;;;;;;;5.75;4.88;;;;;;;-0.47;100.00;100904.94;6282852;28;20129;-87
2023/04/06 04:05:50;;;;;;;8.18;5.00;;;;;;;-0.54;100.00;100903.44;6283449;28;20433;-88
2023/04/06 04:08:53;;;;;;;8.10;5.50;;;;;;;-0.58;100.00;100904.38;6272225;28;20056;-87
2023/04/06 04:11:56;;;;;;;7.20;5.30;;;;;;;-0.57;100.00;100907.75;6283294;28;20037;-88
2023/04/06 04:14:59;;;;;;;10.27;5.15;;;;;;;-0.63;100.00;100913.84;6283001;28;20052;-88
2023/04/06 04:18:01;;;;;;;7.75;5.10;;;;;;;-0.62;100.00;100912.13;6281933;28;20053;-88
2023/04/06 04:21:03;;;;;;;7.75;5.20;;;;;;;-0.67;100.00;100905.47;6283187;28;20119;-88
2023/04/06 04:24:05;;;;;;;9.40;5.65;;;;;;;-0.63;100.00;100908.75;6281868;28;20414;-88
2023/04/06 04:27:10;;;;;;;9.23;5.38;;;;;;;-0.66;100.00;100917.28;6275944;28;20040;-88
2023/04/06 04:30:14;;;;;;;7.22;5.75;;;;;;;-0.68;100.00;100911.41;6281725;28;20040;-88
2023/04/06 04:33:16;;;;;;;7.68;5.32;;;;;;;-0.70;100.00;100908.06;6283163;28;20087;-88
2023/04/06 04:36:19;;;;;;;8.20;5.82;;;;;;;-0.73;100.00;100910.69;6282527;28;20056;-88
2023/04/06 04:39:24;;;;;;;8.05;5.47;;;;;;;-0.75;100.00;100903.97;6281427;28;20507;-88
2023/04/06 04:42:34;;;;;;;8.80;5.90;;;;;;;-0.74;100.00;100903.13;6274410;28;20075;-88
2023/04/06 04:45:38;;;;;;;7.85;6.00;;;;;;;-0.69;100.00;100907.22;6287070;28;20045;-88
2023/04/06 04:49:00;;;;;;;9.07;5.72;;;;;;;-0.68;100.00;100902.97;6264356;28;20067;-87
2023/04/06 04:52:03;;;;;;;8.93;6.18;;;;;;;-0.72;100.00;100903.91;6286424;28;20306;-88
2023/04/06 04:55:15;;;;;;;8.07;5.57;;;;;;;-0.70;100.00;100899.63;6271958;28;20461;-88
2023/04/06 04:58:20;;;;;;;8.85;6.35;;;;;;;-0.69;100.00;100907.22;6277654;28;20134;-88
2023/04/06 05:01:27;;;;;;;13.43;6.57;;;;;;;-0.67;100.00;100900.38;6286421;28;20056;-88
2023/04/06 05:04:30;;;;;;;11.27;7.07;;;;;;;-0.59;100.00;100897.63;6270271;28;20049;-89
2023/04/06 05:07:35;;;;;;;8.73;6.03;;;;;;;-0.52;100.00;100901.69;6270626;28;20040;-88
2023/04/06 05:10:39;;;;;;;8.68;7.18;;;;;;;-0.54;100.00;100900.88;6279905;28;20974;-88
2023/04/06 05:13:42;;;;;;;8.82;7.65;;;;;;;-0.50;100.00;100904.16;6286598;28;20501;-88
2023/04/06 05:16:50;;;;;;;9.90;6.55;;;;;;;-0.47;100.00;100897.31;6286577;28;20091;-88
2023/04/06 05:19:52;;;;;;;9.57;6.50;;;;;;;-0.40;100.00;100900.50;6283713;28;20063;-88
2023/04/06 05:22:58;;;;;;;8.32;6.15;;;;;;;-0.32;100.00;100913.03;6285899;28;20589;-88
2023/04/06 05:26:00;;;;;;;11.98;6.47;;;;;;;-0.26;100.00;100910.31;6285613;28;20400;-88
2023/04/06 05:29:02;;;;;;;8.75;6.22;;;;;;;-0.25;100.00;100905.19;6288499;28;20625;-88
2023/04/06 05:32:07;;;;;;;9.30;6.75;;;;;;;-0.19;100.00;100908.44;6285085;28;20414;-88
2023/04/06 05:35:11;;;;;;;8.07;6.47;;;;;;;-0.10;100.00;100903.06;6287841;28;20036;-88
2023/04/06 05:38:16;;;;;;;10.48;6.47;;;;;;;-0.04;100.00;100898.63;6286246;28;20052;-88
2023/04/06 05:41:17;;;;;;;9.55;6.75;;;;;;;0.08;100.00;100899.16;6287198;28;20451;-88
2023/04/06 05:44:19;;;;;;;7.88;5.80;;;;;;;0.14;100.00;100899.78;6285913;28;20434;-88
2023/04/06 05:47:29;;;;;;;9.00;7.50;;;;;;;0.22;100.00;100897.03;6276046;28;20355;-87
2023/04/06 05:50:39;;;;;;;9.77;6.40;;;;;;;0.25;100.00;100898.63;6276238;28;20173;-88
2023/04/06 05:53:43;;;;;;;10.38;7.13;;;;;;;0.26;100.00;100903.69;6285589;28;20052;-88
2023/04/06 05:56:45;;;;;;;9.38;6.95;;;;;;;0.29;100.00;100907.88;6288337;28;20037;-88
2023/04/06 05:59:48;;;;;;;9.55;6.25;;;;;;;0.39;100.00;100902.44;6285339;28;20047;-88
2023/04/06 06:02:50;;;;;;;10.80;7.10;;;;;;;0.38;100.00;100899.97;6284078;28;20044;-88
2023/04/06 06:06:04;;;;;;;9.65;7.38;;;;;;;0.51;100.00;100902.94;6285536;28;20490;-88
2023/04/06 06:09:23;;;;;;;8.85;7.18;;;;;;;0.48;100.00;100895.41;6284571;28;20072;-88
2023/04/06 06:12:35;;;;;;;8.95;6.60;;;;;;;0.53;100.00;100899.47;6281323;28;20544;-88
2023/04/06 06:15:38;;;;;;;8.70;6.88;;;;;;;0.56;100.00;100894.28;6284572;28;20055;-88
2023/04/06 06:18:40;;;;;;;9.75;6.20;;;;;;;0.66;100.00;100897.38;6268295;28;20052;-88
2023/04/06 06:21:42;;;;;;;9.23;6.90;;;;;;;0.68;100.00;100893.06;6286478;28;20774;-87
2023/04/06 06:24:44;;;;;;;8.48;6.70;;;;;;;0.71;100.00;100897.22;6285331;28;20135;-88
2023/04/06 06:27:47;;;;;;;9.63;6.47;;;;;;;0.76;100.00;100896.19;6284496;28;20040;-87
2023/04/06 06:30:52;;;;;;;9.55;6.85;;;;;;;0.93;100.00;100898.19;6286678;28;20085;-88
2023/04/06 06:33:57;;;;;;;9.68;6.78;;;;;;;1.07;100.00;100902.84;6268223;28;20141;-87
2023/04/06 06:37:00;;;;;;;10.25;6.60;;;;;;;1.10;100.00;100897.63;6287100;28;20094;-88
2023/04/06 06:40:03;;;;;;;8.93;6.95;;;;;;;1.16;100.00;100899.13;6283136;28;20510;-87
2023/04/06 06:43:06;;;;;;;8.98;6.45;;;;;;;1.27;100.00;100903.00;6285593;28;20040;-88
2023/04/06 06:46:20;;;;;;;10.25;7.28;;;;;;;1.41;100.00;100899.13;6284622;28;20277;-87
2023/04/06 06:49:22;;;;;;;10.80;7.38;;;;;;;1.41;100.00;100902.50;6284847;28;20045;-87
2023/04/06 06:52:24;;;;;;;9.50;7.13;;;;;;;1.45;100.00;100901.53;6285510;28;20426;-88
2023/04/06 06:55:26;;;;;;;10.27;7.13;;;;;;;1.52;100.00;100899.59;6283236;28;20164;-87
2023/04/06 06:58:28;;;;;;;10.75;7.60;;;;;;;1.60;100.00;100902.69;6284458;28;20048;-87
2023/04/06 07:01:34;;;;;;;10.73;7.10;;;;;;;1.62;100.00;100902.66;6282608;28;20040;-87
2023/04/06 07:04:36;;;;;;;10.30;7.22;;;;;;;1.62;100.00;100890.72;6282128;28;20060;-87
2023/04/06 07:07:39;;;;;;;7.78;6.97;;;;;;;1.76;100.00;100895.31;6284366;28;20160;-87
2023/04/06 07:10:40;;;;;;;11.13;6.90;;;;;;;1.83;100.00;100901.03;6279515;28;20295;-87
2023/04/06 07:13:42;;;;;;;9.43;6.95;;;;;;;1.91;100.00;100899.03;6282977;28;20407;-87
2023/04/06 07:16:45;;;;;;;11.73;7.60;;;;;;;2.07;100.00;100897.56;6283661;28;20045;-87
2023/04/06 07:19:47;;;;;;;11.18;6.88;;;;;;;2.14;100.00;100899.00;6283304;28;20040;-87
2023/04/06 07:22:50;;;;;;;9.23;6.78;;;;;;;2.25;100.00;100895.22;6282907;28;20055;-87
2023/04/06 07:25:53;;;;;;;10.60;7.63;;;;;;;2.28;100.00;100895.91;6281980;28;20047;-87
2023/04/06 07:28:55;;;;;;;10.18;6.47;;;;;;;2.42;100.00;100897.13;6281854;28;20131;-87
2023/04/06 07:31:59;;;;;;;9.38;6.38;;;;;;;2.50;100.00;100892.53;6272951;28;20155;-87
2023/04/06 07:35:02;;;;;;;10.32;6.85;;;;;;;2.65;100.00;100894.47;6282823;28;20070;-87
2023/04/06 07:38:04;;;;;;;9.93;7.20;;;;;;;2.83;100.00;100895.44;6265686;28;20040;-87
2023/04/06 07:41:07;;;;;;;11.65;7.05;;;;;;;2.90;100.00;100894.31;6283954;28;20040;-87
2023/04/06 07:44:09;;;;;;;8.40;6.20;;;;;;;3.04;100.00;100895.47;6282181;28;20448;-87
2023/04/06 07:47:12;;;;;;;9.82;6.25;;;;;;;3.04;100.00;100892.91;6281754;28;20041;-88
2023/04/06 07:50:14;;;;;;;8.18;6.03;;;;;;;3.13;100.00;100889.97;6283376;28;20040;-87
2023/04/06 07:53:16;;;;;;;10.50;6.40;;;;;;;3.24;100.00;100898.84;6280759;28;20055;-88
2023/04/06 07:56:21;;;;;;;9.30;6.22;;;;;;;3.29;100.00;100885.88;6282432;28;20044;-87
2023/04/06 07:59:23;;;;;;;10.77;6.18;;;;;;;3.42;100.00;100884.44;6276534;28;20454;-88
2023/04/06 08:02:25;;;;;;;9.40;6.15;;;;;;;3.56;100.00;100885.56;6283130;28;20039;-87
2023/04/06 08:05:28;;;;;;;10.70;6.30;;;;;;;3.72;100.00;100888.28;6283992;28;20627;-87
2023/04/06 08:08:30;;;;;;;6.65;5.38;;;;;;;3.99;100.00;100884.47;6254487;28;20051;-88
2023/04/06 08:11:32;;;;;;;6.35;5.75;;;;;;;4.14;100.00;100889.78;6284608;28;20508;-88
2023/04/06 08:14:34;;;;;;;7.00;6.18;;;;;;;4.22;100.00;100888.50;6282395;28;20467;-88
2023/04/06 08:17:36;;;;;;;10.65;6.78;;;;;;;4.32;100.00;100891.47;6283523;28;20054;-88
2023/04/06 08:20:39;;;;;;;9.63;6.57;;;;;;;4.50;100.00;100890.63;6282614;28;20044;-87
2023/04/06 08:23:41;;;;;;;10.88;7.43;;;;;;;4.72;100.00;100890.44;6281777;28;20041;-88
2023/04/06 08:26:43;;;;;;;8.50;6.40;;;;;;;4.86;100.00;100884.59;6285016;28;20382;-87
2023/04/06 08:29:45;;;;;;;8.95;6.63;;;;;;;4.97;100.00;100881.53;6280017;28;20067;-87
2023/04/06 08:32:48;;;;;;;8.15;5.82;;;;;;;5.18;100.00;100887.31;6274546;28;20041;-88
2023/04/06 08:35:50;;;;;;;9.48;6.85;;;;;;;5.33;100.00;100883.94;6283081;28;20075;-88
2023/04/06 08:38:53;;;;;;;9.15;6.43;;;;;;;5.38;100.00;100879.41;6275578;28;20491;-87
2023/04/06 08:42:02;;;;;;;10.48;6.47;;;;;;;5.50;100.00;100879.69;6283452;28;20045;-89
2023/04/06 08:45:05;;;;;;;8.77;7.15;;;;;;;5.64;100.00;100878.97;6281417;28;20050;-88
2023/04/06 08:48:09;;;;;;;9.60;6.55;;;;;;;5.79;100.00;100888.44;6275921;28;20082;-87
2023/04/06 08:51:11;;;;;;;7.88;6.20;;;;;;;5.86;100.00;100881.22;6283326;28;20037;-88
2023/04/06 08:54:14;;;;;;;8.07;6.30;;;;;;;5.98;100.00;100881.41;6272678;28;20411;-88
2023/04/06 08:57:18;;;;;;;8.68;6.45;;;;;;;6.09;100.00;100883.44;6283541;28;20180;-88
2023/04/06 09:00:22;;;;;;;9.02;7.30;;;;;;;6.21;100.00;100884.47;6276385;28;20456;-88
2023/04/06 09:03:26;;;;;;;9.50;6.47;;;;;;;6.33;100.00;100882.97;6285114;28;20051;-88
2023/04/06 09:06:28;;;;;;;8.40;6.50;;;;;;;6.38;100.00;100884.38;6266267;28;20052;-88
2023/04/06 09:09:30;;;;;;;9.13;6.60;;;;;;;6.44;100.00;100880.66;6272065;28;20049;-88
2023/04/06 09:12:32;;;;;;;8.73;6.72;;;;;;;6.50;100.00;100882.88;6284158;28;20064;-88
2023/04/06 09:15:35;;;;;;;12.15;6.90;;;;;;;6.56;100.00;100877.38;6273751;28;20174;-88
2023/04/06 09:18:37;;;;;;;8.05;6.55;;;;;;;6.67;100.00;100877.59;6283891;28;20453;-89
2023/04/06 09:21:42;;;;;;;10.35;7.05;;;;;;;6.80;100.00;100875.13;6284870;28;20063;-88
2023/04/06 09:24:51;;;;;;;10.48;6.40;;;;;;;6.91;100.00;100879.69;6282459;28;20572;-88
2023/04/06 09:28:04;;;;;;;8.43;5.95;;;;;;;7.08;100.00;100876.97;6279124;28;20044;-88
2023/04/06 09:31:06;;;;;;;10.43;6.20;;;;;;;7.23;100.00;100875.22;6287105;28;20048;-88
2023/04/06 09:34:08;;;;;;;9.57;6.82;;;;;;;7.33;100.00;100867.78;6286666;28;20288;-88
2023/04/06 09:37:18;;;;;;;9.75;6.70;;;;;;;7.37;100.00;100874.38;6285456;28;20043;-88
2023/04/06 09:40:21;;;;;;;8.25;6.78;;;;;;;7.58;100.00;100868.84;6267415;28;20056;-88
2023/04/06 09:43:25;;;;;;;10.68;6.28;;;;;;;7.70;100.00;100870.69;6287984;28;20041;-88
2023/04/06 09:46:30;;;;;;;9.98;7.28;;;;;;;7.76;100.00;100872.91;6285704;28;20170;-88
2023/04/06 09:49:41;;;;;;;9.05;6.63;;;;;;;7.86;100.00;100865.44;6286398;28;20048;-87
2023/04/06 09:52:48;;;;;;;7.65;6.05;;;;;;;7.81;100.00;100868.28;6278049;28;20143;-87
2023/04/06 09:55:56;;;;;;;12.48;7.00;;;;;;;8.09;100.00;100864.81;6286855;28;20107;-88
2023/04/06 09:59:05;;;;;;;9.45;6.22;;;;;;;8.21;100.00;100865.78;6282610;28;20132;-88
2023/04/06 10:02:14;;;;;;;10.45;6.70;;;;;;;8.30;100.00;100852.31;6276294;28;20403;-88
2023/04/06 10:05:46;;;;;;;8.32;6.32;;;;;;;8.39;100.00;100856.03;6267966;28;20045;-87
2023/04/06 10:08:51;;;;;;;8.85;6.20;;;;;;;8.37;100.00;100852.72;6279365;28;20044;-88
2023/04/06 10:11:55;;;;;;;13.60;7.03;;;;;;;8.51;100.00;100857.03;6262245;28;20037;-84
2023/04/06 10:14:57;;;;;;;9.93;6.22;;;;;;;8.72;100.00;100845.31;6283411;28;20056;-88
2023/04/06 10:18:01;;;;;;;10.35;6.22;;;;;;;8.80;100.00;100839.66;6288154;28;20050;-88
2023/04/06 10:21:14;;;;;;;15.25;6.97;;;;;;;8.90;100.00;100843.25;6282964;28;20044;-88
2023/04/06 10:24:17;;;;;;;12.23;7.00;;;;;;;9.16;100.00;100838.09;6287230;28;20055;-90
2023/04/06 10:27:29;;;;;;;7.82;5.90;;;;;;;9.26;100.00;100837.34;6286543;28;20644;-88
2023/04/06 10:30:32;;;;;;;9.75;6.43;;;;;;;9.45;100.00;100841.25;6278624;28;20174;-88
2023/04/06 10:33:35;;;;;;;10.45;6.60;;;;;;;9.62;100.00;100840.91;6281225;28;20052;-88
2023/04/06 10:36:37;;;;;;;11.60;7.07;;;;;;;9.77;100.00;100840.78;6280266;28;20072;-88
2023/04/06 10:39:47;;;;;;;9.57;5.95;;;;;;;9.95;100.00;100833.47;6272816;28;20371;-88
2023/04/06 10:42:49;;;;;;;10.68;6.78;;;;;;;10.03;100.00;100837.16;6281783;28;20049;-87
2023/04/06 10:45:59;;;;;;;11.77;6.70;;;;;;;10.23;100.00;100840.88;6280327;28;20404;-87
2023/04/06 10:49:14;;;;;;;;;;;;;;;10.24;96.32;100839.16;6283720;28;20147;-88
2023/04/06 10:52:16;;;;;;;8.90;5.78;;;;;;;10.35;100.00;100834.84;6278893;28;19932;-88
2023/04/06 10:55:20;;;;;;;10.43;6.47;;;;;;;10.53;97.39;100837.88;6279254;28;20045;-88
2023/04/06 10:58:29;;;;;;;10.23;6.70;;;;;;;10.62;95.80;100832.94;6285101;28;20044;-88
2023/04/06 11:01:31;;;;;;;11.90;6.82;;;;;;;10.67;95.42;100831.66;6286694;28;20111;-88
2023/04/06 11:04:33;;;;;;;10.13;6.70;;;;;;;10.77;100.00;100822.25;6284628;28;20059;-88
2023/04/06 11:07:35;;;;;;;11.32;6.50;;;;;;;10.73;87.50;100820.88;6284663;28;20051;-88
2023/04/06 11:10:43;;;;;;;12.18;7.60;;;;;;;10.70;90.56;100822.84;6285486;28;20036;-88
2023/04/06 11:14:00;;;;;;;8.60;7.00;;;;;;;10.77;88.33;100824.03;6284888;28;20150;-90
2023/04/06 11:17:03;;;;;;;12.23;6.95;;;;;;;10.77;85.89;100814.50;6278849;28;20478;-89
2023/04/06 11:20:10;;;;;;;11.82;7.63;;;;;;;10.87;88.68;100812.03;6283857;28;20427;-90
2023/04/06 11:23:22;;;;;;;11.57;7.18;;;;;;;10.94;89.24;100802.88;6281849;28;20443;-90
2023/04/06 11:26:24;;;;;;;10.63;7.35;;;;;;;11.12;87.63;100810.16;6298256;28;20123;-90
2023/04/06 11:29:28;;;;;;;12.10;7.35;;;;;;;11.26;92.51;100806.53;6268023;28;20049;-90
2023/04/06 11:32:39;;;;;;;11.32;7.93;;;;;;;11.42;90.29;100812.97;6277963;28;20093;-90
2023/04/06 11:35:41;;;;;;;11.05;7.28;;;;;;;11.59;90.07;100803.06;6280107;28;20481;-90
2023/04/06 11:38:43;;;;;;;10.85;7.63;;;;;;;11.62;88.17;100800.22;6283129;28;20060;-90
2023/04/06 11:41:49;;;;;;;11.50;7.78;;;;;;;11.69;84.13;100798.78;6273854;28;20486;-90
2023/04/06 11:44:55;;;;;;;11.30;7.60;;;;;;;11.76;90.90;100792.19;6271101;28;20360;-88
2023/04/06 11:47:59;;;;;;;11.68;8.05;;;;;;;11.83;88.77;100795.94;6286448;28;20044;-88
2023/04/06 11:51:04;;;;;;;11.43;7.47;;;;;;;11.80;80.43;100795.34;6265356;28;20063;-89
2023/04/06 11:54:08;;;;;;;10.80;7.80;;;;;;;11.91;93.41;100797.94;6285895;28;20044;-89
2023/04/06 11:57:09;;;;;;;11.23;8.05;;;;;;;11.99;85.27;100789.53;6262821;28;20057;-89
2023/04/06 12:00:12;;;;;;;9.23;7.80;;;;;;;11.97;83.57;100783.66;6282721;28;20546;-88
2023/04/06 12:03:15;;;;;;;10.90;7.45;;;;;;;12.06;77.50;100778.53;6266377;28;20044;-89
2023/04/06 12:06:17;;;;;;;13.25;7.95;;;;;;;12.25;88.44;100779.66;6280389;28;20087;-89
2023/04/06 12:09:19;;;;;;;10.70;8.30;;;;;;;12.38;85.17;100774.28;6285599;28;20422;-89
2023/04/06 12:12:21;;;;;;;10.50;7.68;;;;;;;12.44;79.80;100790.16;6282119;28;20048;-89
2023/04/06 12:15:23;;;;;;;9.57;7.95;;;;;;;12.43;79.96;100770.34;6283992;28;20493;-89
2023/04/06 12:18:25;;;;;;;10.23;7.93;;;;;;;12.47;77.75;100773.50;6286763;28;20040;-89
2023/04/06 12:21:28;;;;;;;10.05;7.18;;;;;;;12.45;74.25;100770.22;6267099;28;20498;-89
2023/04/06 12:24:30;;;;;;;12.15;7.35;;;;;;;12.49;80.33;100769.00;6284713;28;20063;-89
2023/04/06 12:27:32;;;;;;;12.18;8.45;;;;;;;12.75;89.10;100768.59;6280485;28;20048;-88
2023/04/06 12:30:35;;;;;;;9.38;7.93;;;;;;;12.93;81.44;100774.84;6281938;28;20054;-89
2023/04/06 12:33:39;;;;;;;12.73;7.78;;;;;;;13.05;79.48;100771.19;6283082;28;20541;-89
2023/04/06 12:36:42;;;;;;;11.43;8.60;;;;;;;13.06;73.01;100769.41;6285774;28;20490;-89
2023/04/06 12:39:44;;;;;;;14.05;8.20;;;;;;;13.12;79.05;100756.72;6285829;28;20041;-89
2023/04/06 12:42:49;;;;;;;10.02;7.13;;;;;;;13.24;76.70;100759.19;6281677;28;20607;-89
2023/04/06 12:45:51;;;;;;;9.95;7.97;;;;;;;13.33;81.06;100761.03;6280137;28;20045;-89
2023/04/06 12:48:54;;;;;;;9.63;7.88;;;;;;;13.39;71.90;100759.69;6285052;28;20048;-89
2023/04/06 12:51:57;;;;;;;9.75;8.05;;;;;;;13.42;67.08;100749.84;6272764;28;20040;-89
2023/04/06 12:55:00;;;;;;;11.50;8.15;;;;;;;13.40;65.54;100750.94;6284906;28;20036;-89
2023/04/06 12:58:03;;;;;;;13.60;8.23;;;;;;;13.48;70.93;100745.88;6277399;28;20051;-89
2023/04/06 13:01:12;;;;;;;10.02;7.82;;;;;;;13.54;68.64;100740.16;6277283;28;20173;-89
2023/04/06 13:04:15;;;;;;;11.68;7.63;;;;;;;13.67;68.79;100737.28;6289256;28;20109;-89
2023/04/06 13:07:17;;;;;;;13.25;7.82;;;;;;;13.77;66.54;100735.50;6288798;28;20426;-89
2023/04/06 13:10:19;;;;;;;10.63;6.95;;;;;;;13.85;62.39;100740.03;6288880;28;20052;-89
2023/04/06 13:13:26;;;;;;;12.18;7.68;;;;;;;13.88;61.11;100735.34;6285929;28;20051;-89
2023/04/06 13:16:29;;;;;;;10.63;7.40;;;;;;;14.00;63.99;100734.25;6285277;28;20850;-89
2023/04/06 13:19:31;;;;;;;14.98;8.63;;;;;;;14.16;67.52;100727.66;6287096;28;20312;-89
2023/04/06 13:22:33;;;;;;;17.25;8.40;;;;;;;14.25;66.90;100723.41;6281448;28;20051;-89
2023/04/06 13:25:35;;;;;;;10.30;7.40;;;;;;;14.42;59.61;100730.50;6281994;28;20045;-89
2023/04/06 13:28:38;;;;;;;10.15;7.63;;;;;;;14.54;59.02;100725.97;6282663;28;20550;-89
2023/04/06 13:31:41;;;;;;;11.55;7.65;;;;;;;14.60;56.43;100717.59;6272184;28;20118;-89
2023/04/06 13:34:47;;;;;;;29.15;9.73;;;;;;;14.65;61.37;100705.75;6286839;28;20427;-89
2023/04/06 13:37:52;;;;;;;14.63;7.47;;;;;;;14.77;57.57;100709.00;6270846;28;20550;-89
2023/04/06 13:40:54;;;;;;;11.75;7.05;;;;;;;14.84;57.44;100707.47;6285990;28;20560;-89
2023/04/06 13:43:57;;;;;;;11.30;7.07;;;;;;;14.92;54.27;100700.72;6288696;28;20126;-90
2023/04/06 13:47:02;;;;;;;12.95;7.45;;;;;;;15.09;52.84;100692.13;6286373;28;20036;-90
2023/04/06 13:50:05;;;;;;;9.45;7.03;;;;;;;15.11;53.68;100692.81;6285431;28;20052;-89
2023/04/06 13:53:06;;;;;;;14.85;7.75;;;;;;;15.24;58.79;100693.25;6287480;28;20517;-90
2023/04/06 13:56:09;;;;;;;10.75;7.50;;;;;;;15.36;54.04;100693.06;6287912;28;20502;-91
2023/04/06 13:59:11;;;;;;;11.40;6.90;;;;;;;15.34;53.62;100687.97;6288163;28;20115;-91
2023/04/06 14:02:13;;;;;;;10.77;7.38;;;;;;;15.31;49.01;100685.66;6280473;28;20550;-92
2023/04/06 14:05:15;;;;;;;11.70;7.53;;;;;;;15.24;53.02;100688.03;6288250;28;20625;-92
2023/04/06 14:08:19;;;;;;;11.57;8.65;;;;;;;15.30;52.71;100689.22;6283030;28;20072;-91
2023/04/06 14:11:21;;;;;;;9.18;6.72;;;;;;;15.40;54.61;100681.34;6285948;28;20530;-91